createdAt,value
2023-05-25T00:02:08.410Z,14.89
2023-05-25T00:04:37.124Z,14.85
2023-05-25T00:07:04.565Z,14.83
2023-05-25T00:09:31.801Z,14.80
2023-05-25T00:11:59.931Z,14.79
2023-05-25T00:14:27.187Z,14.79
2023-05-25T00:16:54.458Z,14.81
2023-05-25T00:19:22.220Z,14.83
2023-05-25T00:21:50.136Z,14.83
2023-05-25T00:24:17.397Z,14.84
2023-05-25T00:26:44.722Z,14.86
2023-05-25T00:29:12.696Z,14.88
2023-05-25T00:31:39.971Z,14.92
2023-05-25T00:34:07.357Z,14.95
2023-05-25T00:36:34.684Z,14.94
2023-05-25T00:39:01.902Z,14.91
2023-05-25T00:41:29.226Z,14.89
2023-05-25T00:43:56.904Z,14.88
2023-05-25T00:46:24.392Z,14.87
2023-05-25T00:48:52.573Z,14.76
2023-05-25T00:51:19.799Z,14.67
2023-05-25T00:53:47.088Z,14.61
2023-05-25T00:56:14.847Z,14.57
2023-05-25T00:58:42.714Z,14.56
2023-05-25T01:01:12.196Z,14.58
2023-05-25T01:03:40.132Z,14.60
2023-05-25T01:06:08.611Z,14.62
2023-05-25T01:08:36.018Z,14.66
2023-05-25T01:11:03.573Z,14.70
2023-05-25T01:13:31.019Z,14.71
2023-05-25T01:15:58.318Z,14.66
2023-05-25T01:18:25.704Z,14.58
2023-05-25T01:20:58.183Z,14.50
2023-05-25T01:23:26.836Z,14.44
2023-05-25T01:25:57.383Z,14.44
2023-05-25T01:28:36.009Z,14.44
2023-05-25T01:31:03.337Z,14.46
2023-05-25T01:33:30.694Z,14.46
2023-05-25T01:35:58.086Z,14.45
2023-05-25T01:38:26.818Z,14.43
2023-05-25T01:40:54.031Z,14.33
2023-05-25T01:43:22.147Z,14.22
2023-05-25T01:45:49.451Z,14.09
2023-05-25T01:48:16.707Z,13.94
2023-05-25T01:50:49.013Z,13.79
2023-05-25T01:53:16.605Z,13.72
2023-05-25T01:55:46.538Z,13.70
2023-05-25T01:58:14.883Z,13.70
2023-05-25T02:00:42.153Z,13.68
2023-05-25T02:03:10.195Z,13.69
2023-05-25T02:05:37.511Z,13.74
2023-05-25T02:08:05.808Z,13.79
2023-05-25T02:10:33.038Z,13.83
2023-05-25T02:13:00.312Z,13.84
2023-05-25T02:15:30.848Z,13.79
2023-05-25T02:18:00.121Z,13.75
2023-05-25T02:20:29.680Z,13.71
2023-05-25T02:22:57.365Z,13.69
2023-05-25T02:25:24.654Z,13.67
2023-05-25T02:27:51.891Z,13.66
2023-05-25T02:30:19.286Z,13.68
2023-05-25T02:32:46.829Z,13.71
2023-05-25T02:35:14.218Z,13.70
2023-05-25T02:37:41.703Z,13.71
2023-05-25T02:40:10.777Z,13.76
2023-05-25T02:42:38.065Z,13.80
2023-05-25T02:45:06.505Z,13.80
2023-05-25T02:47:35.045Z,13.75
2023-05-25T02:50:02.641Z,13.73
2023-05-25T02:52:31.898Z,13.68
2023-05-25T02:54:59.342Z,13.61
2023-05-25T02:57:31.681Z,13.56
2023-05-25T02:59:59.237Z,13.56
2023-05-25T03:02:26.920Z,13.58
2023-05-25T03:04:54.279Z,13.61
2023-05-25T03:07:21.693Z,13.66
2023-05-25T03:09:49.339Z,13.74
2023-05-25T03:12:16.677Z,13.85
2023-05-25T03:14:44.297Z,13.99
2023-05-25T03:17:11.716Z,14.15
2023-05-25T03:19:39.033Z,14.33
2023-05-25T03:22:06.407Z,14.52
2023-05-25T03:24:34.348Z,14.75
2023-05-25T03:27:02.806Z,14.96
2023-05-25T03:29:30.243Z,15.20
2023-05-25T03:31:57.609Z,15.47
2023-05-25T03:34:26.694Z,15.76
2023-05-25T03:36:55.188Z,16.05
2023-05-25T03:39:22.489Z,16.34
2023-05-25T03:41:51.434Z,16.63
2023-05-25T03:44:18.919Z,16.90
2023-05-25T03:46:46.610Z,17.10
2023-05-25T03:49:14.274Z,17.30
2023-05-25T03:51:42.989Z,17.57
2023-05-25T03:54:10.593Z,17.86
2023-05-25T03:56:38.265Z,18.21
2023-05-25T03:59:06.331Z,18.58
2023-05-25T04:01:33.697Z,18.87
2023-05-25T04:04:02.975Z,19.13
2023-05-25T04:06:30.466Z,19.47
2023-05-25T04:08:58.196Z,19.79
2023-05-25T04:11:27.740Z,20.06
2023-05-25T04:13:55.140Z,20.41
2023-05-25T04:16:26.172Z,20.78
2023-05-25T04:18:53.852Z,21.21
2023-05-25T04:21:21.708Z,21.64
2023-05-25T04:23:49.082Z,21.99
2023-05-25T04:26:16.600Z,22.35
2023-05-25T04:28:44.220Z,22.71
2023-05-25T04:31:21.288Z,23.11
2023-05-25T04:34:02.784Z,23.51
2023-05-25T04:36:43.257Z,23.87
2023-05-25T04:39:11.467Z,24.18
2023-05-25T04:41:44.127Z,24.41
2023-05-25T04:44:13.967Z,24.60
2023-05-25T04:46:49.871Z,24.81
2023-05-25T04:49:26.750Z,25.12
2023-05-25T04:51:54.311Z,25.41
2023-05-25T04:54:21.847Z,25.63
2023-05-25T04:56:49.194Z,25.81
2023-05-25T04:59:16.455Z,26.07
2023-05-25T05:01:44.787Z,26.37
2023-05-25T05:04:15.383Z,26.66
2023-05-25T05:06:43.441Z,26.88
2023-05-25T05:09:16.128Z,27.13
2023-05-25T05:11:44.079Z,27.44
2023-05-25T05:14:11.421Z,27.71
2023-05-25T05:16:39.467Z,27.95
2023-05-25T05:19:07.104Z,28.19
2023-05-25T05:21:34.456Z,28.38
2023-05-25T05:24:04.891Z,28.58
2023-05-25T05:26:38.479Z,28.81
2023-05-25T05:29:17.053Z,29.08
2023-05-25T05:31:44.405Z,29.37
2023-05-25T05:34:11.801Z,29.57
2023-05-25T05:36:52.763Z,29.77
2023-05-25T05:39:24.808Z,29.94
2023-05-25T05:41:52.146Z,30.05
2023-05-25T05:44:26.945Z,30.13
2023-05-25T05:47:01.367Z,30.29
2023-05-25T05:49:29.194Z,30.43
2023-05-25T05:51:56.686Z,30.51
2023-05-25T05:54:24.032Z,30.68
2023-05-25T05:56:51.311Z,30.83
2023-05-25T05:59:21.349Z,30.91
2023-05-25T06:01:48.678Z,31.05
2023-05-25T06:04:16.190Z,31.09
2023-05-25T06:06:45.337Z,31.10
2023-05-25T06:09:13.916Z,31.21
2023-05-25T06:11:41.336Z,31.29
2023-05-25T06:14:08.866Z,31.48
2023-05-25T06:16:36.741Z,31.69
2023-05-25T06:19:04.208Z,31.95
2023-05-25T06:21:31.519Z,32.14
2023-05-25T06:23:58.814Z,32.27
2023-05-25T06:26:27.187Z,32.26
2023-05-25T06:28:56.251Z,32.29
2023-05-25T06:31:24.076Z,32.34
2023-05-25T06:33:51.410Z,32.47
2023-05-25T06:36:20.108Z,32.63
2023-05-25T06:38:47.574Z,32.74
2023-05-25T06:41:15.514Z,32.81
2023-05-25T06:43:43.534Z,32.93
2023-05-25T06:46:18.383Z,33.06
2023-05-25T06:48:46.267Z,33.14
2023-05-25T06:51:13.782Z,33.27
2023-05-25T06:53:41.245Z,33.37
2023-05-25T06:56:08.590Z,33.53
2023-05-25T06:58:36.037Z,33.71
2023-05-25T07:01:03.522Z,33.86
2023-05-25T07:03:30.973Z,33.88
2023-05-25T07:05:58.309Z,33.90
2023-05-25T07:08:25.859Z,33.89
2023-05-25T07:10:53.140Z,33.91
2023-05-25T07:13:20.573Z,33.93
2023-05-25T07:15:48.452Z,34.06
2023-05-25T07:18:16.213Z,34.26
2023-05-25T07:20:44.035Z,34.40
2023-05-25T07:23:11.754Z,34.43
2023-05-25T07:25:39.211Z,34.44
2023-05-25T07:28:06.602Z,34.56
2023-05-25T07:30:34.155Z,34.71
2023-05-25T07:33:02.116Z,34.82
2023-05-25T07:35:29.572Z,34.94
2023-05-25T07:37:57.801Z,35.08
2023-05-25T07:40:25.122Z,35.23
2023-05-25T07:42:52.491Z,35.35
2023-05-25T07:45:19.776Z,35.51
2023-05-25T07:47:47.279Z,35.68
2023-05-25T07:50:14.845Z,35.79
2023-05-25T07:52:42.337Z,35.75
2023-05-25T07:55:09.949Z,35.62
2023-05-25T07:57:37.269Z,35.45
2023-05-25T08:00:11.126Z,35.45
2023-05-25T08:02:41.873Z,35.64
2023-05-25T08:05:10.179Z,35.84
2023-05-25T08:07:38.292Z,36.07
2023-05-25T08:10:07.102Z,36.18
2023-05-25T08:12:47.803Z,36.18
2023-05-25T08:15:16.066Z,36.21
2023-05-25T08:17:43.325Z,36.32
2023-05-25T08:20:11.055Z,36.42
2023-05-25T08:22:38.353Z,36.61
2023-05-25T08:25:06.834Z,36.61
2023-05-25T08:27:35.980Z,36.50
2023-05-25T08:30:05.934Z,36.48
2023-05-25T08:32:33.389Z,36.57
2023-05-25T08:35:01.891Z,36.58
2023-05-25T08:37:29.505Z,36.41
2023-05-25T08:39:56.773Z,36.39
2023-05-25T08:42:24.088Z,36.39
2023-05-25T08:44:51.513Z,36.47
2023-05-25T08:47:20.534Z,36.62
2023-05-25T08:49:48.345Z,36.95
2023-05-25T08:52:15.907Z,37.07
2023-05-25T08:54:43.587Z,36.98
2023-05-25T08:57:46.594Z,36.83
2023-05-25T09:00:14.349Z,36.70
2023-05-25T09:02:51.434Z,36.81
2023-05-25T09:05:19.012Z,37.00
2023-05-25T09:07:46.243Z,37.20
2023-05-25T09:10:13.614Z,37.22
2023-05-25T09:12:41.119Z,36.95
2023-05-25T09:15:10.608Z,36.82
2023-05-25T09:17:38.403Z,36.93
2023-05-25T09:20:06.202Z,37.35
2023-05-25T09:22:33.595Z,37.71
2023-05-25T09:25:00.912Z,37.91
2023-05-25T09:27:28.165Z,38.17
2023-05-25T09:30:00.018Z,38.04
2023-05-25T09:32:27.491Z,37.05
2023-05-25T09:34:57.620Z,36.24
2023-05-25T09:37:25.216Z,35.88
2023-05-25T09:39:52.927Z,36.14
2023-05-25T09:42:20.378Z,36.77
2023-05-25T09:44:47.621Z,37.51
2023-05-25T09:47:16.981Z,37.93
2023-05-25T09:49:47.583Z,38.28
2023-05-25T09:52:14.986Z,38.55
2023-05-25T09:54:48.927Z,37.99
2023-05-25T09:57:16.891Z,36.84
2023-05-25T09:59:45.427Z,35.85
2023-05-25T10:02:13.157Z,35.11
2023-05-25T10:04:41.405Z,35.50
2023-05-25T10:07:08.744Z,36.29
2023-05-25T10:09:38.841Z,37.07
2023-05-25T10:12:06.519Z,37.99
2023-05-25T10:14:36.406Z,38.50
2023-05-25T10:17:05.146Z,37.77
2023-05-25T10:19:37.679Z,36.70
2023-05-25T10:22:09.182Z,36.03
2023-05-25T10:24:42.696Z,36.35
2023-05-25T10:27:25.625Z,36.77
2023-05-25T10:29:54.048Z,36.08
2023-05-25T10:32:21.330Z,35.15
2023-05-25T10:34:48.643Z,34.48
2023-05-25T10:37:15.940Z,33.86
2023-05-25T10:39:46.275Z,33.26
2023-05-25T10:42:13.601Z,32.69
2023-05-25T10:44:43.982Z,32.31
2023-05-25T10:47:11.476Z,32.14
2023-05-25T10:49:52.447Z,32.07
2023-05-25T10:52:22.672Z,32.02
2023-05-25T10:54:49.990Z,31.92
2023-05-25T10:57:24.212Z,31.82
2023-05-25T10:59:51.731Z,31.68
2023-05-25T11:02:25.127Z,31.48
2023-05-25T11:04:53.941Z,31.33
2023-05-25T11:07:21.373Z,31.19
2023-05-25T11:10:06.901Z,30.99
2023-05-25T11:12:34.159Z,30.74
2023-05-25T11:15:16.844Z,30.54
2023-05-25T11:17:44.711Z,30.35
2023-05-25T11:20:21.283Z,30.19
2023-05-25T11:22:50.387Z,29.98
2023-05-25T11:25:42.925Z,29.77
2023-05-25T11:28:11.928Z,29.64
2023-05-25T11:30:40.023Z,29.56
2023-05-25T11:33:09.237Z,29.49
2023-05-25T11:35:39.728Z,29.49
2023-05-25T11:38:07.284Z,29.56
2023-05-25T11:40:36.388Z,29.68
2023-05-25T11:43:04.980Z,29.79
2023-05-25T11:45:33.950Z,29.90
2023-05-25T11:48:01.343Z,29.95
2023-05-25T11:50:28.696Z,29.94
2023-05-25T11:52:56.042Z,29.90
2023-05-25T11:55:23.299Z,29.74
2023-05-25T11:57:57.332Z,29.62
2023-05-25T12:00:25.163Z,29.49
2023-05-25T12:02:52.762Z,29.30
2023-05-25T12:05:20.309Z,29.11
2023-05-25T12:07:47.747Z,28.95
2023-05-25T12:10:16.588Z,28.73
2023-05-25T12:12:50.347Z,28.47
2023-05-25T12:15:20.702Z,28.18
2023-05-25T12:17:48.506Z,27.90
2023-05-25T12:20:17.116Z,27.66
2023-05-25T12:22:44.759Z,27.47
2023-05-25T12:25:12.478Z,27.32
2023-05-25T12:27:40.361Z,27.20
2023-05-25T12:30:08.905Z,27.12
2023-05-25T12:32:52.113Z,27.08
2023-05-25T12:35:19.516Z,27.01
2023-05-25T12:37:46.888Z,26.98
2023-05-25T12:40:18.496Z,26.97
2023-05-25T12:42:45.844Z,27.03
2023-05-25T12:45:13.442Z,27.08
2023-05-25T12:47:40.828Z,27.14
2023-05-25T12:50:11.393Z,27.25
2023-05-25T12:52:39.440Z,27.34
2023-05-25T12:55:29.092Z,27.46
2023-05-25T12:57:58.101Z,27.61
2023-05-25T13:00:32.625Z,27.71
2023-05-25T13:03:00.056Z,27.80
2023-05-25T13:05:27.985Z,27.86
2023-05-25T13:07:55.847Z,27.90
2023-05-25T13:10:23.320Z,27.94
2023-05-25T13:12:51.021Z,27.96
2023-05-25T13:15:21.030Z,27.96
2023-05-25T13:17:48.775Z,27.91
2023-05-25T13:20:16.228Z,27.86
2023-05-25T13:22:44.943Z,27.82
2023-05-25T13:25:12.503Z,27.81
2023-05-25T13:27:44.295Z,27.78
2023-05-25T13:30:12.538Z,27.77
2023-05-25T13:32:40.030Z,27.75
2023-05-25T13:35:08.008Z,27.72
2023-05-25T13:37:35.363Z,27.71
2023-05-25T13:40:03.692Z,27.71
2023-05-25T13:42:32.386Z,27.70
2023-05-25T13:44:59.665Z,27.70
2023-05-25T13:47:27.065Z,27.63
2023-05-25T13:49:54.429Z,27.52
2023-05-25T13:52:21.739Z,27.42
2023-05-25T13:54:49.074Z,27.28
2023-05-25T13:57:16.343Z,27.15
2023-05-25T13:59:43.676Z,27.00
2023-05-25T14:02:10.948Z,26.90
2023-05-25T14:04:38.852Z,26.83
2023-05-25T14:07:06.234Z,26.81
2023-05-25T14:09:33.490Z,26.83
2023-05-25T14:12:01.519Z,26.88
2023-05-25T14:14:31.884Z,26.94
2023-05-25T14:17:01.207Z,27.01
2023-05-25T14:19:28.985Z,27.08
2023-05-25T14:22:11.746Z,27.11
2023-05-25T14:24:40.669Z,27.10
2023-05-25T14:27:07.969Z,27.08
2023-05-25T14:29:35.483Z,27.06
2023-05-25T14:32:02.871Z,27.06
2023-05-25T14:34:30.515Z,27.06
2023-05-25T14:36:57.985Z,27.07
2023-05-25T14:39:25.962Z,27.10
2023-05-25T14:41:53.355Z,27.13
2023-05-25T14:44:23.069Z,27.18
2023-05-25T14:46:51.044Z,27.21
2023-05-25T14:49:18.591Z,27.23
2023-05-25T14:51:45.819Z,27.22
2023-05-25T14:54:13.759Z,27.19
2023-05-25T14:56:41.070Z,27.12
2023-05-25T14:59:08.421Z,27.05
2023-05-25T15:01:36.058Z,26.97
2023-05-25T15:04:03.636Z,26.88
2023-05-25T15:06:32.108Z,26.80
2023-05-25T15:08:59.506Z,26.70
2023-05-25T15:11:29.825Z,26.60
2023-05-25T15:14:00.538Z,26.51
2023-05-25T15:16:27.921Z,26.41
2023-05-25T15:18:55.221Z,26.31
2023-05-25T15:21:22.520Z,26.22
2023-05-25T15:23:49.884Z,26.12
2023-05-25T15:26:17.134Z,26.03
2023-05-25T15:28:44.464Z,25.94
2023-05-25T15:31:11.784Z,25.84
2023-05-25T15:33:52.105Z,25.76
2023-05-25T15:36:23.793Z,25.67
2023-05-25T15:38:51.061Z,25.60
2023-05-25T15:41:18.330Z,25.55
2023-05-25T15:43:50.088Z,25.52
2023-05-25T15:46:17.359Z,25.51
2023-05-25T15:48:44.633Z,25.51
2023-05-25T15:51:11.890Z,25.53
2023-05-25T15:53:39.106Z,25.57
2023-05-25T15:56:06.440Z,25.61
2023-05-25T15:58:34.691Z,25.65
2023-05-25T16:01:02.635Z,25.68
2023-05-25T16:03:30.133Z,25.70
2023-05-25T16:05:57.516Z,25.72
2023-05-25T16:08:24.824Z,25.71
2023-05-25T16:10:52.062Z,25.69
2023-05-25T16:13:19.586Z,25.65
2023-05-25T16:15:47.262Z,25.59
2023-05-25T16:18:16.651Z,25.49
2023-05-25T16:20:44.404Z,25.39
2023-05-25T16:23:11.802Z,25.30
2023-05-25T16:25:39.006Z,25.20
2023-05-25T16:28:06.466Z,25.10
2023-05-25T16:30:33.839Z,25.01
2023-05-25T16:33:01.206Z,24.92
2023-05-25T16:35:28.628Z,24.83
2023-05-25T16:37:56.146Z,24.75
2023-05-25T16:40:23.440Z,24.67
2023-05-25T16:42:50.730Z,24.56
2023-05-25T16:45:18.418Z,24.44
2023-05-25T16:47:45.967Z,24.32
2023-05-25T16:50:13.433Z,24.14
2023-05-25T16:52:40.764Z,23.96
2023-05-25T16:55:08.126Z,23.82
2023-05-25T16:57:35.419Z,23.66
2023-05-25T17:00:02.653Z,23.47
2023-05-25T17:02:30.120Z,23.29
2023-05-25T17:04:57.509Z,23.14
2023-05-25T17:07:25.070Z,22.98
2023-05-25T17:09:52.381Z,22.81
2023-05-25T17:12:20.437Z,22.65
2023-05-25T17:14:48.252Z,22.49
2023-05-25T17:17:15.505Z,22.34
2023-05-25T17:19:43.059Z,22.18
2023-05-25T17:22:10.635Z,22.07
2023-05-25T17:24:37.858Z,21.98
2023-05-25T17:27:05.408Z,21.88
2023-05-25T17:29:33.158Z,21.79
2023-05-25T17:32:00.558Z,21.70
2023-05-25T17:34:27.905Z,21.64
2023-05-25T17:36:55.164Z,21.56
2023-05-25T17:39:22.634Z,21.49
2023-05-25T17:41:51.084Z,21.42
2023-05-25T17:44:19.035Z,21.34
2023-05-25T17:46:50.653Z,21.26
2023-05-25T17:49:19.057Z,21.17
2023-05-25T17:51:46.620Z,21.09
2023-05-25T17:54:19.825Z,20.99
2023-05-25T17:56:47.419Z,20.90
2023-05-25T17:59:14.812Z,20.81
2023-05-25T18:01:42.292Z,20.71
2023-05-25T18:04:09.748Z,20.65
2023-05-25T18:06:37.391Z,20.58
2023-05-25T18:09:04.707Z,20.51
2023-05-25T18:11:36.616Z,20.43
2023-05-25T18:14:05.275Z,20.35
2023-05-25T18:16:32.818Z,20.27
2023-05-25T18:19:00.220Z,20.18
2023-05-25T18:21:27.495Z,20.12
2023-05-25T18:23:54.950Z,20.06
2023-05-25T18:26:22.219Z,20.04
2023-05-25T18:28:49.943Z,20.00
2023-05-25T18:31:17.212Z,19.92
2023-05-25T18:33:44.689Z,19.83
2023-05-25T18:36:13.048Z,19.75
2023-05-25T18:38:40.393Z,19.67
2023-05-25T18:41:07.660Z,19.60
2023-05-25T18:43:34.952Z,19.54
2023-05-25T18:46:02.255Z,19.48
2023-05-25T18:48:29.518Z,19.42
2023-05-25T18:50:56.931Z,19.36
2023-05-25T18:53:24.183Z,19.31
2023-05-25T18:55:51.792Z,19.27
2023-05-25T18:58:19.495Z,19.23
2023-05-25T19:00:47.060Z,19.20
2023-05-25T19:03:14.924Z,19.16
2023-05-25T19:05:42.478Z,19.14
2023-05-25T19:08:09.747Z,19.09
2023-05-25T19:10:36.982Z,19.05
2023-05-25T19:13:04.273Z,19.01
2023-05-25T19:15:31.591Z,18.99
2023-05-25T19:17:58.898Z,18.96
2023-05-25T19:20:28.131Z,18.92
2023-05-25T19:22:55.637Z,18.88
2023-05-25T19:25:22.897Z,18.85
2023-05-25T19:27:50.479Z,18.81
2023-05-25T19:30:17.799Z,18.77
2023-05-25T19:32:45.137Z,18.73
2023-05-25T19:35:12.422Z,18.70
2023-05-25T19:37:41.301Z,18.66
2023-05-25T19:40:09.609Z,18.64
2023-05-25T19:42:37.056Z,18.60
2023-05-25T19:45:04.708Z,18.59
2023-05-25T19:47:32.239Z,18.57
2023-05-25T19:49:59.520Z,18.56
2023-05-25T19:52:26.811Z,18.55
2023-05-25T19:54:54.058Z,18.52
2023-05-25T19:57:21.582Z,18.48
2023-05-25T19:59:50.606Z,18.45
2023-05-25T20:02:17.952Z,18.42
2023-05-25T20:04:45.328Z,18.40
2023-05-25T20:07:12.662Z,18.39
2023-05-25T20:09:39.982Z,18.38
2023-05-25T20:12:07.348Z,18.37
2023-05-25T20:14:34.639Z,18.35
2023-05-25T20:17:01.967Z,18.33
2023-05-25T20:19:29.683Z,18.31
2023-05-25T20:21:57.994Z,18.30
2023-05-25T20:24:25.266Z,18.28
2023-05-25T20:26:56.742Z,18.24
2023-05-25T20:29:24.263Z,18.21
2023-05-25T20:31:51.960Z,18.18
2023-05-25T20:34:19.319Z,18.15
2023-05-25T20:36:46.616Z,18.12
2023-05-25T20:39:13.982Z,18.08
2023-05-25T20:41:41.475Z,18.05
2023-05-25T20:44:10.066Z,18.02
2023-05-25T20:46:38.440Z,17.99
2023-05-25T20:49:06.195Z,17.96
2023-05-25T20:51:33.519Z,17.94
2023-05-25T20:54:00.848Z,17.92
2023-05-25T20:56:28.117Z,17.92
2023-05-25T20:58:55.478Z,17.92
2023-05-25T21:01:22.844Z,17.92
2023-05-25T21:03:50.326Z,17.91
2023-05-25T21:06:18.519Z,17.91
2023-05-25T21:08:49.484Z,17.91
2023-05-25T21:11:17.171Z,17.91
2023-05-25T21:13:44.414Z,17.90
2023-05-25T21:16:11.912Z,17.89
2023-05-25T21:18:39.158Z,17.92
2023-05-25T21:21:07.536Z,17.94
2023-05-25T21:23:35.079Z,17.94
2023-05-25T21:26:02.814Z,17.92
2023-05-25T21:28:30.781Z,17.89
2023-05-25T21:30:58.858Z,17.87
2023-05-25T21:33:26.497Z,17.82
2023-05-25T21:35:53.815Z,17.77
2023-05-25T21:38:21.141Z,17.72
2023-05-25T21:40:48.387Z,17.68
2023-05-25T21:43:15.728Z,17.63
2023-05-25T21:45:43.130Z,17.60
2023-05-25T21:48:10.758Z,17.57
2023-05-25T21:50:38.962Z,17.54
2023-05-25T21:53:06.209Z,17.51
2023-05-25T21:55:33.432Z,17.48
2023-05-25T21:58:00.782Z,17.45
2023-05-25T22:00:28.174Z,17.42
2023-05-25T22:02:55.666Z,17.43
2023-05-25T22:05:23.409Z,17.46
2023-05-25T22:07:51.844Z,17.49
2023-05-25T22:10:20.318Z,17.50
2023-05-25T22:12:48.341Z,17.51
2023-05-25T22:15:15.676Z,17.50
2023-05-25T22:17:42.967Z,17.47
2023-05-25T22:20:10.796Z,17.39
2023-05-25T22:22:38.207Z,17.30
2023-05-25T22:25:05.881Z,17.21
2023-05-25T22:27:33.174Z,17.13
2023-05-25T22:30:00.526Z,17.04
2023-05-25T22:32:27.907Z,16.98
2023-05-25T22:34:55.226Z,16.94
2023-05-25T22:37:22.598Z,16.88
2023-05-25T22:39:50.035Z,16.80
2023-05-25T22:42:17.826Z,16.73
2023-05-25T22:44:45.608Z,16.68
2023-05-25T22:47:13.095Z,16.63
2023-05-25T22:49:43.128Z,16.60
2023-05-25T22:52:11.843Z,16.53
2023-05-25T22:54:39.308Z,16.51
2023-05-25T22:57:06.843Z,16.48
2023-05-25T22:59:34.201Z,16.47
2023-05-25T23:02:01.600Z,16.49
2023-05-25T23:04:28.904Z,16.47
2023-05-25T23:06:56.236Z,16.41
2023-05-25T23:09:23.578Z,16.36
2023-05-25T23:11:50.875Z,16.33
2023-05-25T23:14:18.186Z,16.36
2023-05-25T23:16:48.536Z,16.42
2023-05-25T23:19:16.825Z,16.46
2023-05-25T23:21:44.289Z,16.47
2023-05-25T23:24:11.595Z,16.45
2023-05-25T23:26:38.811Z,16.42
2023-05-25T23:29:06.139Z,16.39
2023-05-25T23:31:33.488Z,16.33
2023-05-25T23:34:00.744Z,16.27
2023-05-25T23:36:28.336Z,16.24
2023-05-25T23:38:56.036Z,16.21
2023-05-25T23:41:23.340Z,16.18
2023-05-25T23:43:51.028Z,16.12
2023-05-25T23:46:18.360Z,16.04
2023-05-25T23:48:45.866Z,15.97
2023-05-25T23:51:13.362Z,15.91
2023-05-25T23:53:40.687Z,15.85
2023-05-25T23:56:08.174Z,15.80
2023-05-25T23:58:35.736Z,15.75
